sensor_id;sensor_type;location;lat;lon;timestamp;pressure;altitude;pressure_sealevel;temperature;humidity
67109;BME280;54027;50.786;7.058;2023-08-01T00:00:13;99496.00;;;17.63;100.00
67109;BME280;54027;50.786;7.058;2023-08-01T00:02:39;99489.00;;;17.63;100.00
67109;BME280;54027;50.786;7.058;2023-08-01T00:05:07;99481.91;;;17.65;100.00
67109;BME280;54027;50.786;7.058;2023-08-01T00:07:33;99484.53;;;17.65;100.00
67109;BME280;54027;50.786;7.058;2023-08-01T00:09:58;99488.00;;;17.66;100.00
67109;BME280;54027;50.786;7.058;2023-08-01T00:12:24;99483.59;;;17.66;100.00
67109;BME280;54027;50.786;7.058;2023-08-01T00:14:50;99478.28;;;17.68;100.00
67109;BME280;54027;50.786;7.058;2023-08-01T00:17:15;99461.69;;;17.69;100.00
67109;BME280;54027;50.786;7.058;2023-08-01T00:19:40;99448.88;;;17.64;100.00
67109;BME280;54027;50.786;7.058;2023-08-01T00:22:05;99455.97;;;17.62;100.00
67109;BME280;54027;50.786;7.058;2023-08-01T00:24:31;99460.34;;;17.62;100.00
67109;BME280;54027;50.786;7.058;2023-08-01T00:26:56;99443.75;;;17.63;100.00
67109;BME280;54027;50.786;7.058;2023-08-01T00:29:22;99454.19;;;17.63;100.00
67109;BME280;54027;50.786;7.058;2023-08-01T00:31:48;99455.88;;;17.64;100.00
67109;BME280;54027;50.786;7.058;2023-08-01T00:34:13;99462.84;;;17.63;100.00
67109;BME280;54027;50.786;7.058;2023-08-01T00:36:38;99460.06;;;17.66;100.00
67109;BME280;54027;50.786;7.058;2023-08-01T00:39:04;99459.25;;;17.66;100.00
67109;BME280;54027;50.786;7.058;2023-08-01T00:41:29;99464.31;;;17.69;100.00
67109;BME280;54027;50.786;7.058;2023-08-01T00:43:54;99470.34;;;17.69;100.00
67109;BME280;54027;50.786;7.058;2023-08-01T00:46:20;99457.28;;;17.69;100.00
67109;BME280;54027;50.786;7.058;2023-08-01T00:48:46;99452.91;;;17.70;100.00
67109;BME280;54027;50.786;7.058;2023-08-01T00:51:11;99451.97;;;17.71;100.00
67109;BME280;54027;50.786;7.058;2023-08-01T00:53:37;99443.28;;;17.70;100.00
67109;BME280;54027;50.786;7.058;2023-08-01T00:56:03;99438.91;;;17.71;100.00
67109;BME280;54027;50.786;7.058;2023-08-01T00:58:29;99438.97;;;17.69;100.00
67109;BME280;54027;50.786;7.058;2023-08-01T01:00:54;99438.97;;;17.69;100.00
67109;BME280;54027;50.786;7.058;2023-08-01T01:03:31;99442.44;;;17.70;100.00
67109;BME280;54027;50.786;7.058;2023-08-01T01:06:04;99434.53;;;17.71;100.00
67109;BME280;54027;50.786;7.058;2023-08-01T01:08:31;99419.75;;;17.70;100.00
67109;BME280;54027;50.786;7.058;2023-08-01T01:10:56;99411.94;;;17.70;100.00
67109;BME280;54027;50.786;7.058;2023-08-01T01:13:22;99399.78;;;17.69;100.00
67109;BME280;54027;50.786;7.058;2023-08-01T01:15:47;99397.16;;;17.69;100.00
67109;BME280;54027;50.786;7.058;2023-08-01T01:18:13;99400.56;;;17.71;100.00
67109;BME280;54027;50.786;7.058;2023-08-01T01:20:38;99393.44;;;17.73;100.00
67109;BME280;54027;50.786;7.058;2023-08-01T01:23:05;99382.06;;;17.74;100.00
67109;BME280;54027;50.786;7.058;2023-08-01T01:25:32;99386.47;;;17.74;100.00
67109;BME280;54027;50.786;7.058;2023-08-01T01:27:59;99373.38;;;17.74;100.00
67109;BME280;54027;50.786;7.058;2023-08-01T01:30:26;99375.91;;;17.75;100.00
67109;BME280;54027;50.786;7.058;2023-08-01T01:32:52;99366.28;;;17.76;100.00
67109;BME280;54027;50.786;7.058;2023-08-01T01:35:18;99373.22;;;17.77;100.00
67109;BME280;54027;50.786;7.058;2023-08-01T01:37:43;99369.75;;;17.76;100.00
67109;BME280;54027;50.786;7.058;2023-08-01T01:40:09;99379.19;;;17.79;100.00
67109;BME280;54027;50.786;7.058;2023-08-01T01:42:34;99377.41;;;17.79;100.00
67109;BME280;54027;50.786;7.058;2023-08-01T01:45:00;99373.94;;;17.79;100.00
67109;BME280;54027;50.786;7.058;2023-08-01T01:47:25;99376.66;;;17.77;100.00
67109;BME280;54027;50.786;7.058;2023-08-01T01:49:50;99395.69;;;17.79;100.00
67109;BME280;54027;50.786;7.058;2023-08-01T01:52:15;99372.28;;;17.78;100.00
67109;BME280;54027;50.786;7.058;2023-08-01T01:54:41;99367.31;;;17.73;100.00
67109;BME280;54027;50.786;7.058;2023-08-01T01:57:06;99374.25;;;17.74;100.00
67109;BME280;54027;50.786;7.058;2023-08-01T01:59:32;99365.63;;;17.72;100.00
67109;BME280;54027;50.786;7.058;2023-08-01T02:01:57;99373.47;;;17.72;100.00
67109;BME280;54027;50.786;7.058;2023-08-01T02:04:22;99372.47;;;17.75;100.00
67109;BME280;54027;50.786;7.058;2023-08-01T02:06:48;99373.28;;;17.75;100.00
67109;BME280;54027;50.786;7.058;2023-08-01T02:09:13;99370.66;;;17.75;100.00
67109;BME280;54027;50.786;7.058;2023-08-01T02:11:38;99375.16;;;17.73;100.00
67109;BME280;54027;50.786;7.058;2023-08-01T02:14:04;99380.38;;;17.73;100.00
67109;BME280;54027;50.786;7.058;2023-08-01T02:16:29;99377.78;;;17.73;100.00
67109;BME280;54027;50.786;7.058;2023-08-01T02:18:54;99376.19;;;17.71;100.00
67109;BME280;54027;50.786;7.058;2023-08-01T02:21:20;99388.41;;;17.70;100.00
67109;BME280;54027;50.786;7.058;2023-08-01T02:23:45;99382.44;;;17.68;100.00
67109;BME280;54027;50.786;7.058;2023-08-01T02:26:10;99385.13;;;17.67;100.00
67109;BME280;54027;50.786;7.058;2023-08-01T02:28:36;99388.59;;;17.67;100.00
67109;BME280;54027;50.786;7.058;2023-08-01T02:31:01;99385.06;;;17.68;100.00
67109;BME280;54027;50.786;7.058;2023-08-01T02:33:26;99383.34;;;17.67;100.00
67109;BME280;54027;50.786;7.058;2023-08-01T02:35:52;99375.53;;;17.67;100.00
67109;BME280;54027;50.786;7.058;2023-08-01T02:38:20;99382.50;;;17.67;100.00
67109;BME280;54027;50.786;7.058;2023-08-01T02:40:45;99386.16;;;17.64;100.00
67109;BME280;54027;50.786;7.058;2023-08-01T02:43:11;99389.31;;;17.55;100.00
67109;BME280;54027;50.786;7.058;2023-08-01T02:45:36;99395.41;;;17.40;100.00
67109;BME280;54027;50.786;7.058;2023-08-01T02:48:01;99397.16;;;17.25;100.00
67109;BME280;54027;50.786;7.058;2023-08-01T02:50:27;99397.84;;;17.13;100.00
67109;BME280;54027;50.786;7.058;2023-08-01T02:52:52;99404.25;;;17.08;100.00
67109;BME280;54027;50.786;7.058;2023-08-01T02:55:17;99413.38;;;17.01;100.00
67109;BME280;54027;50.786;7.058;2023-08-01T02:57:43;99406.97;;;16.91;100.00
67109;BME280;54027;50.786;7.058;2023-08-01T03:00:09;99410.59;;;16.88;100.00
67109;BME280;54027;50.786;7.058;2023-08-01T03:02:37;99413.22;;;16.88;100.00
67109;BME280;54027;50.786;7.058;2023-08-01T03:05:05;99408.91;;;16.87;100.00
67109;BME280;54027;50.786;7.058;2023-08-01T03:07:30;99405.56;;;16.85;100.00
67109;BME280;54027;50.786;7.058;2023-08-01T03:09:55;99404.69;;;16.84;100.00
67109;BME280;54027;50.786;7.058;2023-08-01T03:12:21;99412.53;;;16.84;100.00
67109;BME280;54027;50.786;7.058;2023-08-01T03:14:46;99412.53;;;16.84;100.00
67109;BME280;54027;50.786;7.058;2023-08-01T03:17:12;99418.94;;;16.79;100.00
67109;BME280;54027;50.786;7.058;2023-08-01T03:19:38;99434.91;;;16.73;100.00
67109;BME280;54027;50.786;7.058;2023-08-01T03:22:04;99439.44;;;16.69;100.00
67109;BME280;54027;50.786;7.058;2023-08-01T03:24:30;99429.09;;;16.68;100.00
67109;BME280;54027;50.786;7.058;2023-08-01T03:26:55;99425.88;;;16.63;100.00
67109;BME280;54027;50.786;7.058;2023-08-01T03:29:20;99438.06;;;16.62;100.00
67109;BME280;54027;50.786;7.058;2023-08-01T03:31:46;99437.47;;;16.57;100.00
67109;BME280;54027;50.786;7.058;2023-08-01T03:34:11;99434.28;;;16.52;100.00
67109;BME280;54027;50.786;7.058;2023-08-01T03:36:38;99436.31;;;16.47;100.00
67109;BME280;54027;50.786;7.058;2023-08-01T03:39:03;99444.28;;;16.44;100.00
67109;BME280;54027;50.786;7.058;2023-08-01T03:41:29;99451.44;;;16.41;100.00
67109;BME280;54027;50.786;7.058;2023-08-01T03:43:54;99454.09;;;16.39;100.00
67109;BME280;54027;50.786;7.058;2023-08-01T03:46:20;99462.94;;;16.37;100.00
67109;BME280;54027;50.786;7.058;2023-08-01T03:48:45;99464.88;;;16.33;100.00
67109;BME280;54027;50.786;7.058;2023-08-01T03:51:10;99458.78;;;16.32;100.00
67109;BME280;54027;50.786;7.058;2023-08-01T03:53:36;99461.50;;;16.31;100.00
67109;BME280;54027;50.786;7.058;2023-08-01T03:56:01;99458.91;;;16.31;100.00
67109;BME280;54027;50.786;7.058;2023-08-01T03:58:27;99458.91;;;16.31;100.00
67109;BME280;54027;50.786;7.058;2023-08-01T04:00:52;99454.59;;;16.30;100.00
67109;BME280;54027;50.786;7.058;2023-08-01T04:03:18;99458.91;;;16.31;100.00
67109;BME280;54027;50.786;7.058;2023-08-01T04:05:43;99458.13;;;16.29;100.00
67109;BME280;54027;50.786;7.058;2023-08-01T04:08:09;99464.16;;;16.29;100.00
67109;BME280;54027;50.786;7.058;2023-08-01T04:10:34;99466.72;;;16.31;100.00
67109;BME280;54027;50.786;7.058;2023-08-01T04:12:59;99479.66;;;16.32;100.00
67109;BME280;54027;50.786;7.058;2023-08-01T04:15:25;99479.59;;;16.34;100.00
67109;BME280;54027;50.786;7.058;2023-08-01T04:17:50;99483.91;;;16.35;100.00
67109;BME280;54027;50.786;7.058;2023-08-01T04:20:15;99484.72;;;16.36;100.00
67109;BME280;54027;50.786;7.058;2023-08-01T04:22:41;99478.53;;;16.38;100.00
67109;BME280;54027;50.786;7.058;2023-08-01T04:25:07;99479.28;;;16.40;100.00
67109;BME280;54027;50.786;7.058;2023-08-01T04:27:32;99478.28;;;16.43;100.00
67109;BME280;54027;50.786;7.058;2023-08-01T04:29:58;99473.00;;;16.44;100.00
67109;BME280;54027;50.786;7.058;2023-08-01T04:32:23;99478.22;;;16.44;100.00
67109;BME280;54027;50.786;7.058;2023-08-01T04:34:48;99485.09;;;16.45;100.00
67109;BME280;54027;50.786;7.058;2023-08-01T04:37:14;99485.94;;;16.46;100.00
67109;BME280;54027;50.786;7.058;2023-08-01T04:39:39;99489.44;;;16.45;100.00
67109;BME280;54027;50.786;7.058;2023-08-01T04:42:05;99500.72;;;16.45;100.00
67109;BME280;54027;50.786;7.058;2023-08-01T04:44:31;99500.91;;;16.42;100.00
67109;BME280;54027;50.786;7.058;2023-08-01T04:46:56;99502.75;;;16.40;100.00
67109;BME280;54027;50.786;7.058;2023-08-01T04:49:21;99502.81;;;16.39;100.00
67109;BME280;54027;50.786;7.058;2023-08-01T04:51:48;99496.00;;;16.36;100.00
67109;BME280;54027;50.786;7.058;2023-08-01T04:54:14;99505.25;;;16.26;100.00
67109;BME280;54027;50.786;7.058;2023-08-01T04:56:39;99513.81;;;16.28;100.00
67109;BME280;54027;50.786;7.058;2023-08-01T04:59:04;99509.59;;;16.25;100.00
67109;BME280;54027;50.786;7.058;2023-08-01T05:01:30;99508.84;;;16.23;100.00
67109;BME280;54027;50.786;7.058;2023-08-01T05:03:56;99508.00;;;16.23;100.00
67109;BME280;54027;50.786;7.058;2023-08-01T05:06:21;99518.75;;;16.17;100.00
67109;BME280;54027;50.786;7.058;2023-08-01T05:08:46;99526.72;;;16.14;100.00
67109;BME280;54027;50.786;7.058;2023-08-01T05:11:12;99521.56;;;16.12;100.00
67109;BME280;54027;50.786;7.058;2023-08-01T05:13:37;99518.25;;;16.09;100.00
67109;BME280;54027;50.786;7.058;2023-08-01T05:16:02;99517.59;;;16.05;100.00
67109;BME280;54027;50.786;7.058;2023-08-01T05:18:28;99522.03;;;16.03;100.00
67109;BME280;54027;50.786;7.058;2023-08-01T05:20:53;99530.63;;;16.05;100.00
67109;BME280;54027;50.786;7.058;2023-08-01T05:23:19;99529.78;;;16.05;100.00
67109;BME280;54027;50.786;7.058;2023-08-01T05:25:44;99533.25;;;16.05;100.00
67109;BME280;54027;50.786;7.058;2023-08-01T05:28:10;99523.56;;;16.07;100.00
67109;BME280;54027;50.786;7.058;2023-08-01T05:30:35;99523.56;;;16.07;100.00
67109;BME280;54027;50.786;7.058;2023-08-01T05:33:00;99517.44;;;16.08;100.00
67109;BME280;54027;50.786;7.058;2023-08-01T05:35:26;99505.16;;;16.10;100.00
67109;BME280;54027;50.786;7.058;2023-08-01T05:37:51;99517.28;;;16.11;100.00
67109;BME280;54027;50.786;7.058;2023-08-01T05:40:17;99524.16;;;16.12;100.00
67109;BME280;54027;50.786;7.058;2023-08-01T05:42:42;99531.78;;;16.17;100.00
67109;BME280;54027;50.786;7.058;2023-08-01T05:45:08;99531.00;;;16.15;100.00
67109;BME280;54027;50.786;7.058;2023-08-01T05:47:33;99537.06;;;16.15;100.00
67109;BME280;54027;50.786;7.058;2023-08-01T05:50:00;99540.59;;;16.14;100.00
67109;BME280;54027;50.786;7.058;2023-08-01T05:52:26;99545.72;;;16.16;100.00
67109;BME280;54027;50.786;7.058;2023-08-01T05:54:51;99545.50;;;16.20;100.00
67109;BME280;54027;50.786;7.058;2023-08-01T05:57:17;99540.59;;;16.31;100.00
67109;BME280;54027;50.786;7.058;2023-08-01T05:59:42;99547.84;;;16.42;100.00
67109;BME280;54027;50.786;7.058;2023-08-01T06:02:07;99543.69;;;16.55;100.00
67109;BME280;54027;50.786;7.058;2023-08-01T06:04:32;99552.31;;;16.73;100.00
67109;BME280;54027;50.786;7.058;2023-08-01T06:06:58;99561.19;;;16.86;100.00
67109;BME280;54027;50.786;7.058;2023-08-01T06:09:24;99561.50;;;16.97;100.00
67109;BME280;54027;50.786;7.058;2023-08-01T06:11:49;99565.28;;;17.07;100.00
67109;BME280;54027;50.786;7.058;2023-08-01T06:14:15;99561.59;;;17.11;100.00
67109;BME280;54027;50.786;7.058;2023-08-01T06:16:41;99566.53;;;17.16;100.00
67109;BME280;54027;50.786;7.058;2023-08-01T06:19:06;99553.66;;;17.13;100.00
67109;BME280;54027;50.786;7.058;2023-08-01T06:21:31;99561.78;;;17.24;100.00
67109;BME280;54027;50.786;7.058;2023-08-01T06:23:57;99560.25;;;17.35;99.76
67109;BME280;54027;50.786;7.058;2023-08-01T06:26:22;99556.78;;;17.35;98.17
67109;BME280;54027;50.786;7.058;2023-08-01T06:28:47;99555.78;;;17.37;96.66
67109;BME280;54027;50.786;7.058;2023-08-01T06:31:13;99561.25;;;17.49;97.86
67109;BME280;54027;50.786;7.058;2023-08-01T06:33:38;99561.25;;;17.49;96.77
67109;BME280;54027;50.786;7.058;2023-08-01T06:36:05;99564.03;;;17.61;95.83
67109;BME280;54027;50.786;7.058;2023-08-01T06:38:30;99555.84;;;17.67;95.68
67109;BME280;54027;50.786;7.058;2023-08-01T06:40:55;99563.34;;;17.73;95.76
67109;BME280;54027;50.786;7.058;2023-08-01T06:43:21;99561.91;;;17.83;94.64
67109;BME280;54027;50.786;7.058;2023-08-01T06:45:46;99557.88;;;17.78;92.73
67109;BME280;54027;50.786;7.058;2023-08-01T06:48:11;99556.84;;;17.80;92.78
67109;BME280;54027;50.786;7.058;2023-08-01T06:50:37;99555.22;;;17.93;91.69
67109;BME280;54027;50.786;7.058;2023-08-01T06:53:02;99551.91;;;18.06;90.57
67109;BME280;54027;50.786;7.058;2023-08-01T06:55:28;99552.75;;;18.06;90.58
67109;BME280;54027;50.786;7.058;2023-08-01T06:57:53;99539.78;;;18.05;90.46
67109;BME280;54027;50.786;7.058;2023-08-01T07:00:19;99551.16;;;18.04;90.32
67109;BME280;54027;50.786;7.058;2023-08-01T07:02:44;99547.47;;;17.92;89.92
67109;BME280;54027;50.786;7.058;2023-08-01T07:05:09;99546.34;;;17.96;91.37
67109;BME280;54027;50.786;7.058;2023-08-01T07:07:35;99557.69;;;18.11;91.96
67109;BME280;54027;50.786;7.058;2023-08-01T07:10:00;99558.50;;;18.27;91.56
67109;BME280;54027;50.786;7.058;2023-08-01T07:12:25;99558.44;;;18.42;90.32
67109;BME280;54027;50.786;7.058;2023-08-01T07:14:51;99552.72;;;18.36;88.46
67109;BME280;54027;50.786;7.058;2023-08-01T07:17:16;99554.06;;;18.43;87.91
67109;BME280;54027;50.786;7.058;2023-08-01T07:19:42;99551.53;;;18.56;88.02
67109;BME280;54027;50.786;7.058;2023-08-01T07:22:07;99562.41;;;18.64;86.73
67109;BME280;54027;50.786;7.058;2023-08-01T07:24:32;99556.56;;;18.59;85.66
67109;BME280;54027;50.786;7.058;2023-08-01T07:26:58;99559.84;;;18.62;85.86
67109;BME280;54027;50.786;7.058;2023-08-01T07:29:23;99568.38;;;18.51;86.36
67109;BME280;54027;50.786;7.058;2023-08-01T07:31:48;99568.63;;;18.47;86.19
67109;BME280;54027;50.786;7.058;2023-08-01T07:34:13;99581.03;;;18.43;86.65
67109;BME280;54027;50.786;7.058;2023-08-01T07:36:39;99576.66;;;18.44;86.43
67109;BME280;54027;50.786;7.058;2023-08-01T07:39:04;99585.34;;;18.44;86.68
67109;BME280;54027;50.786;7.058;2023-08-01T07:41:30;99583.56;;;18.45;86.99
67109;BME280;54027;50.786;7.058;2023-08-01T07:43:55;99587.72;;;18.49;86.33
67109;BME280;54027;50.786;7.058;2023-08-01T07:46:20;99588.75;;;18.61;86.93
67109;BME280;54027;50.786;7.058;2023-08-01T07:48:46;99574.81;;;18.60;84.15
67109;BME280;54027;50.786;7.058;2023-08-01T07:51:11;99583.03;;;18.68;84.28
67109;BME280;54027;50.786;7.058;2023-08-01T07:53:37;99588.03;;;18.73;84.89
67109;BME280;54027;50.786;7.058;2023-08-01T07:56:03;99601.72;;;18.62;85.46
67109;BME280;54027;50.786;7.058;2023-08-01T07:58:29;99583.97;;;18.53;83.09
67109;BME280;54027;50.786;7.058;2023-08-01T08:00:54;99588.84;;;18.73;84.02
67109;BME280;54027;50.786;7.058;2023-08-01T08:03:20;99573.38;;;18.84;81.08
67109;BME280;54027;50.786;7.058;2023-08-01T08:05:48;99592.91;;;19.07;82.10
67109;BME280;54027;50.786;7.058;2023-08-01T08:08:13;99592.41;;;19.15;80.79
67109;BME280;54027;50.786;7.058;2023-08-01T08:10:39;99588.41;;;19.23;81.57
67109;BME280;54027;50.786;7.058;2023-08-01T08:13:04;99590.91;;;19.25;80.92
67109;BME280;54027;50.786;7.058;2023-08-01T08:15:29;99580.66;;;19.07;79.43
67109;BME280;54027;50.786;7.058;2023-08-01T08:17:59;99595.81;;;19.02;80.61
67109;BME280;54027;50.786;7.058;2023-08-01T08:20:24;99589.78;;;19.15;80.28
67109;BME280;54027;50.786;7.058;2023-08-01T08:22:49;99600.94;;;19.18;79.91
67109;BME280;54027;50.786;7.058;2023-08-01T08:25:15;99572.78;;;19.07;77.69
67109;BME280;54027;50.786;7.058;2023-08-01T08:27:40;99571.75;;;19.10;77.01
67109;BME280;54027;50.786;7.058;2023-08-01T08:30:06;99589.81;;;19.29;77.42
67109;BME280;54027;50.786;7.058;2023-08-01T08:32:31;99572.00;;;19.34;76.58
67109;BME280;54027;50.786;7.058;2023-08-01T08:34:57;99587.88;;;19.45;76.55
67109;BME280;54027;50.786;7.058;2023-08-01T08:37:22;99580.03;;;19.45;76.73
67109;BME280;54027;50.786;7.058;2023-08-01T08:39:47;99577.63;;;19.28;75.60
67109;BME280;54027;50.786;7.058;2023-08-01T08:42:13;99597.47;;;19.18;76.02
67109;BME280;54027;50.786;7.058;2023-08-01T08:44:43;99588.31;;;19.11;76.59
67109;BME280;54027;50.786;7.058;2023-08-01T08:47:10;99591.59;;;19.14;77.22
67109;BME280;54027;50.786;7.058;2023-08-01T08:49:36;99583.91;;;19.25;76.48
67109;BME280;54027;50.786;7.058;2023-08-01T08:52:02;99568.91;;;19.27;74.71
67109;BME280;54027;50.786;7.058;2023-08-01T08:54:28;99558.50;;;19.40;73.27
67109;BME280;54027;50.786;7.058;2023-08-01T08:56:55;99560.91;;;19.57;72.43
67109;BME280;54027;50.786;7.058;2023-08-01T08:59:21;99547.13;;;19.68;71.41
67109;BME280;54027;50.786;7.058;2023-08-01T09:01:46;99562.44;;;19.74;71.36
67109;BME280;54027;50.786;7.058;2023-08-01T09:04:12;99554.00;;;19.69;70.58
67109;BME280;54027;50.786;7.058;2023-08-01T09:06:46;99566.09;;;19.71;72.36
67109;BME280;54027;50.786;7.058;2023-08-01T09:09:14;99548.38;;;19.75;71.03
67109;BME280;54027;50.786;7.058;2023-08-01T09:11:45;99564.38;;;19.84;71.04
67109;BME280;54027;50.786;7.058;2023-08-01T09:14:11;99554.66;;;19.99;69.70
67109;BME280;54027;50.786;7.058;2023-08-01T09:16:36;99559.03;;;20.38;70.01
67109;BME280;54027;50.786;7.058;2023-08-01T09:19:02;99553.69;;;20.64;68.78
67109;BME280;54027;50.786;7.058;2023-08-01T09:21:32;99513.06;;;20.83;66.70
67109;BME280;54027;50.786;7.058;2023-08-01T09:24:10;99533.34;;;20.81;66.97
67109;BME280;54027;50.786;7.058;2023-08-01T09:26:37;99541.84;;;20.84;66.70
67109;BME280;54027;50.786;7.058;2023-08-01T09:29:02;99540.47;;;21.04;66.69
67109;BME280;54027;50.786;7.058;2023-08-01T09:31:32;99544.16;;;21.01;65.77
67109;BME280;54027;50.786;7.058;2023-08-01T09:33:59;99539.72;;;21.02;65.34
67109;BME280;54027;50.786;7.058;2023-08-01T09:36:24;99541.03;;;20.84;65.28
67109;BME280;54027;50.786;7.058;2023-08-01T09:38:51;99552.09;;;21.12;65.36
67109;BME280;54027;50.786;7.058;2023-08-01T09:41:20;99561.94;;;21.34;66.11
67109;BME280;54027;50.786;7.058;2023-08-01T09:43:49;99554.31;;;21.18;65.36
67109;BME280;54027;50.786;7.058;2023-08-01T09:46:15;99562.38;;;21.28;65.67
67109;BME280;54027;50.786;7.058;2023-08-01T09:48:40;99513.31;;;21.16;62.96
67109;BME280;54027;50.786;7.058;2023-08-01T09:51:14;99503.50;;;21.31;62.14
67109;BME280;54027;50.786;7.058;2023-08-01T09:54:09;99502.28;;;21.35;61.25
67109;BME280;54027;50.786;7.058;2023-08-01T09:56:34;99512.53;;;21.50;61.89
67109;BME280;54027;50.786;7.058;2023-08-01T09:59:01;99529.03;;;21.65;62.19
67109;BME280;54027;50.786;7.058;2023-08-01T10:01:26;99503.72;;;21.51;60.97
67109;BME280;54027;50.786;7.058;2023-08-01T10:03:53;99507.78;;;21.32;61.33
67109;BME280;54027;50.786;7.058;2023-08-01T10:06:21;99547.13;;;21.20;63.13
67109;BME280;54027;50.786;7.058;2023-08-01T10:08:48;99578.19;;;21.03;65.18
67109;BME280;54027;50.786;7.058;2023-08-01T10:11:18;99563.31;;;21.27;64.53
67109;BME280;54027;50.786;7.058;2023-08-01T10:13:44;99504.56;;;21.52;62.01
67109;BME280;54027;50.786;7.058;2023-08-01T10:16:10;99526.59;;;21.86;62.60
67109;BME280;54027;50.786;7.058;2023-08-01T10:18:36;99483.75;;;22.18;60.84
67109;BME280;54027;50.786;7.058;2023-08-01T10:21:06;99473.59;;;22.36;60.36
67109;BME280;54027;50.786;7.058;2023-08-01T10:23:33;99470.59;;;22.29;59.86
67109;BME280;54027;50.786;7.058;2023-08-01T10:26:01;99468.88;;;21.95;59.81
67109;BME280;54027;50.786;7.058;2023-08-01T10:28:38;99508.28;;;22.08;61.05
67109;BME280;54027;50.786;7.058;2023-08-01T10:31:12;99508.13;;;22.09;61.06
67109;BME280;54027;50.786;7.058;2023-08-01T10:33:39;99502.03;;;22.44;61.17
67109;BME280;54027;50.786;7.058;2023-08-01T10:38:56;99473.03;;;22.99;59.56
67109;BME280;54027;50.786;7.058;2023-08-01T10:41:30;99468.28;;;22.49;59.14
67109;BME280;54027;50.786;7.058;2023-08-01T10:44:09;99514.91;;;21.90;60.67
67109;BME280;54027;50.786;7.058;2023-08-01T10:46:49;99617.16;;;21.34;65.86
67109;BME280;54027;50.786;7.058;2023-08-01T10:49:15;99667.34;;;20.66;73.42
67109;BME280;54027;50.786;7.058;2023-08-01T10:51:42;99648.81;;;20.30;78.44
67109;BME280;54027;50.786;7.058;2023-08-01T10:54:26;99628.47;;;20.46;80.48
67109;BME280;54027;50.786;7.058;2023-08-01T10:56:54;99628.97;;;20.51;80.48
67109;BME280;54027;50.786;7.058;2023-08-01T10:59:21;99616.13;;;20.74;78.93
67109;BME280;54027;50.786;7.058;2023-08-01T11:01:48;99608.00;;;21.14;77.43
67109;BME280;54027;50.786;7.058;2023-08-01T11:04:18;99566.84;;;21.39;72.78
67109;BME280;54027;50.786;7.058;2023-08-01T11:06:48;99593.38;;;21.72;73.36
67109;BME280;54027;50.786;7.058;2023-08-01T11:09:17;99573.31;;;22.06;71.14
67109;BME280;54027;50.786;7.058;2023-08-01T11:11:43;99561.16;;;22.16;68.83
67109;BME280;54027;50.786;7.058;2023-08-01T11:14:11;99548.13;;;22.49;67.10
67109;BME280;54027;50.786;7.058;2023-08-01T11:16:37;99495.44;;;22.71;62.90
67109;BME280;54027;50.786;7.058;2023-08-01T11:19:03;99470.38;;;22.99;58.97
67109;BME280;54027;50.786;7.058;2023-08-01T11:21:28;99494.88;;;22.68;59.97
67109;BME280;54027;50.786;7.058;2023-08-01T11:23:53;99493.19;;;22.56;58.93
67109;BME280;54027;50.786;7.058;2023-08-01T11:26:19;99488.38;;;22.61;58.26
67109;BME280;54027;50.786;7.058;2023-08-01T11:28:45;99467.66;;;22.78;56.92
67109;BME280;54027;50.786;7.058;2023-08-01T11:31:11;99454.91;;;23.17;55.10
67109;BME280;54027;50.786;7.058;2023-08-01T11:33:40;99457.22;;;23.53;54.78
67109;BME280;54027;50.786;7.058;2023-08-01T11:36:05;99468.34;;;23.57;55.74
67109;BME280;54027;50.786;7.058;2023-08-01T11:38:32;99479.56;;;23.70;56.03
67109;BME280;54027;50.786;7.058;2023-08-01T11:41:03;99456.66;;;23.38;54.15
67109;BME280;54027;50.786;7.058;2023-08-01T11:43:42;99468.22;;;23.15;54.38
67109;BME280;54027;50.786;7.058;2023-08-01T11:46:08;99493.00;;;23.13;55.91
67109;BME280;54027;50.786;7.058;2023-08-01T11:48:33;99475.69;;;22.88;54.14
67109;BME280;54027;50.786;7.058;2023-08-01T11:51:00;99472.69;;;22.48;54.44
67109;BME280;54027;50.786;7.058;2023-08-01T11:53:26;99512.91;;;22.50;55.40
67109;BME280;54027;50.786;7.058;2023-08-01T11:55:52;99510.06;;;22.64;55.25
67109;BME280;54027;50.786;7.058;2023-08-01T11:58:34;99538.75;;;22.45;56.75
67109;BME280;54027;50.786;7.058;2023-08-01T12:01:13;99568.84;;;22.30;58.20
67109;BME280;54027;50.786;7.058;2023-08-01T12:03:43;99576.41;;;22.00;58.45
67109;BME280;54027;50.786;7.058;2023-08-01T12:06:09;99626.31;;;21.52;60.82
67109;BME280;54027;50.786;7.058;2023-08-01T12:08:34;99651.13;;;21.24;63.25
67109;BME280;54027;50.786;7.058;2023-08-01T12:11:00;99635.25;;;21.01;63.76
67109;BME280;54027;50.786;7.058;2023-08-01T12:13:26;99647.44;;;21.14;65.18
67109;BME280;54027;50.786;7.058;2023-08-01T12:15:53;99603.22;;;21.57;63.03
67109;BME280;54027;50.786;7.058;2023-08-01T12:18:23;99593.38;;;22.19;62.24
67109;BME280;54027;50.786;7.058;2023-08-01T12:20:49;99578.66;;;22.63;60.89
67109;BME280;54027;50.786;7.058;2023-08-01T12:23:14;99559.88;;;22.67;60.27
67109;BME280;54027;50.786;7.058;2023-08-01T12:25:39;99547.56;;;22.68;59.62
67109;BME280;54027;50.786;7.058;2023-08-01T12:28:05;99554.59;;;22.78;59.80
67109;BME280;54027;50.786;7.058;2023-08-01T12:30:30;99573.28;;;22.64;60.53
67109;BME280;54027;50.786;7.058;2023-08-01T12:32:55;99577.59;;;22.30;61.31
67109;BME280;54027;50.786;7.058;2023-08-01T12:35:21;99597.97;;;22.05;61.72
67109;BME280;54027;50.786;7.058;2023-08-01T12:37:46;99586.34;;;21.72;61.32
67109;BME280;54027;50.786;7.058;2023-08-01T12:40:11;99608.28;;;21.60;62.58
67109;BME280;54027;50.786;7.058;2023-08-01T12:42:36;99630.56;;;21.55;63.09
67109;BME280;54027;50.786;7.058;2023-08-01T12:45:02;99668.97;;;21.45;65.49
67109;BME280;54027;50.786;7.058;2023-08-01T12:47:28;99627.09;;;21.42;63.35
67109;BME280;54027;50.786;7.058;2023-08-01T12:49:54;99630.16;;;21.61;63.32
67109;BME280;54027;50.786;7.058;2023-08-01T12:52:23;99624.56;;;21.89;63.10